Time;durP1;ratioP1;P1;durP2;ratioP2;P2;SDS_P1;SDS_P2;PMS_P1;PMS_P2;Temp;Humidity;BMP_temperature;BMP_pressure;BME280_temperature;BME280_humidity;BME280_pressure;Samples;Min_cycle;Max_cycle;Signal;HPM_P1;HPM_P2
2021/10/07 00:00:52;;;;;;;2.75;1.60;;;9.70;99.90;;;;;;4877338;29;20211;-76
2021/10/07 00:03:19;;;;;;;2.17;1.60;;;9.70;99.90;;;;;;4877012;29;20207;-75
2021/10/07 00:05:46;;;;;;;2.95;1.70;;;9.70;99.90;;;;;;4876918;29;20227;-75
2021/10/07 00:08:13;;;;;;;2.83;1.55;;;9.70;99.90;;;;;;4871064;29;20218;-76
2021/10/07 00:10:40;;;;;;;1.65;1.40;;;9.70;99.90;;;;;;4858924;29;20676;-75
2021/10/07 00:13:08;;;;;;;1.92;1.60;;;9.70;99.90;;;;;;4858544;29;20680;-74
2021/10/07 00:15:34;;;;;;;2.03;1.48;;;9.70;99.90;;;;;;4858705;29;20235;-76
2021/10/07 00:18:01;;;;;;;2.55;1.55;;;9.70;99.90;;;;;;4858105;29;20228;-76
2021/10/07 00:20:28;;;;;;;3.90;1.85;;;9.70;99.90;;;;;;4858709;29;20212;-76
2021/10/07 00:22:54;;;;;;;2.33;1.60;;;9.70;99.90;;;;;;4858665;29;20215;-75
2021/10/07 00:25:21;;;;;;;2.10;1.90;;;9.70;99.90;;;;;;4858337;29;20250;-75
2021/10/07 00:27:48;;;;;;;2.80;2.30;;;9.70;99.90;;;;;;4857943;29;20668;-76
2021/10/07 00:30:17;;;;;;;4.30;1.55;;;9.70;99.90;;;;;;4858330;29;20219;-76
2021/10/07 00:32:50;;;;;;;1.83;1.50;;;9.70;99.90;;;;;;4858614;29;20239;-75
2021/10/07 00:41:00;;;;;;;3.60;2.00;;;9.70;99.90;;;;;;4819808;29;20273;-75
2021/10/07 00:43:27;;;;;;;1.60;1.50;;;9.70;99.90;;;;;;4840867;29;20703;-76
2021/10/07 00:45:57;;;;;;;2.22;1.73;;;9.70;99.90;;;;;;4857968;29;20228;-76
2021/10/07 00:48:24;;;;;;;2.90;1.70;;;9.60;99.90;;;;;;4858713;29;20208;-76
2021/10/07 00:50:51;;;;;;;2.10;1.73;;;9.70;99.90;;;;;;4864570;29;20211;-76
2021/10/07 00:53:19;;;;;;;2.90;1.77;;;9.70;99.90;;;;;;4864392;29;20208;-76
2021/10/07 00:55:47;;;;;;;1.65;1.40;;;9.60;99.90;;;;;;4864090;29;20223;-76
2021/10/07 00:58:15;;;;;;;2.05;1.65;;;9.60;99.90;;;;;;4864235;29;20598;-76
2021/10/07 01:00:43;;;;;;;4.28;2.47;;;9.60;99.90;;;;;;4864411;29;20211;-76
2021/10/07 01:03:11;;;;;;;3.17;1.85;;;9.60;99.90;;;;;;4864582;29;20222;-76
2021/10/07 01:05:39;;;;;;;2.75;1.67;;;9.70;99.90;;;;;;4864003;29;20726;-75
2021/10/07 01:08:07;;;;;;;2.00;1.70;;;9.70;99.90;;;;;;4864168;29;20211;-76
2021/10/07 01:10:33;;;;;;;2.25;1.50;;;9.70;99.90;;;;;;4864104;29;20703;-76
2021/10/07 01:13:00;;;;;;;2.90;1.42;;;9.70;99.90;;;;;;4864271;29;20692;-76
2021/10/07 01:15:27;;;;;;;2.25;1.50;;;9.70;99.90;;;;;;4864040;29;20223;-76
2021/10/07 01:17:54;;;;;;;3.53;1.70;;;9.70;99.90;;;;;;4863664;29;20235;-76
2021/10/07 01:20:22;;;;;;;3.35;1.30;;;9.60;99.90;;;;;;4864434;29;20219;-76
2021/10/07 01:22:49;;;;;;;2.13;1.20;;;9.60;99.90;;;;;;4863900;29;20706;-76
2021/10/07 01:25:15;;;;;;;3.55;1.85;;;9.60;99.90;;;;;;4864227;29;20637;-76
2021/10/07 01:27:42;;;;;;;3.10;1.70;;;9.60;99.90;;;;;;4863665;29;20768;-75
2021/10/07 01:30:12;;;;;;;2.08;1.83;;;9.60;99.90;;;;;;4864059;29;20559;-76
2021/10/07 01:32:40;;;;;;;2.70;1.85;;;9.60;99.90;;;;;;4864109;29;20212;-76
2021/10/07 01:35:10;;;;;;;2.08;1.50;;;9.60;99.90;;;;;;4863949;29;20232;-76
2021/10/07 01:37:38;;;;;;;1.73;1.33;;;9.70;99.90;;;;;;4863294;29;20719;-75
2021/10/07 01:40:08;;;;;;;1.75;1.58;;;9.60;99.90;;;;;;4863939;29;20208;-75
2021/10/07 01:42:34;;;;;;;1.77;1.67;;;9.70;99.90;;;;;;4863817;29;20215;-76
2021/10/07 01:45:01;;;;;;;5.75;1.80;;;9.70;99.90;;;;;;4863905;29;20231;-75
2021/10/07 01:47:28;;;;;;;1.60;1.50;;;9.70;99.90;;;;;;4863538;29;20556;-76
2021/10/07 01:49:55;;;;;;;2.22;1.50;;;9.70;99.90;;;;;;4864082;29;20206;-76
2021/10/07 01:52:21;;;;;;;1.70;1.60;;;9.70;99.90;;;;;;4863732;29;20207;-76
2021/10/07 01:54:49;;;;;;;1.77;1.45;;;9.70;99.90;;;;;;4864037;29;20236;-76
2021/10/07 01:57:16;;;;;;;1.90;1.73;;;9.70;99.90;;;;;;4863165;29;20223;-75
2021/10/07 01:59:43;;;;;;;4.90;1.70;;;9.70;99.90;;;;;;4863507;29;20691;-76
2021/10/07 02:02:10;;;;;;;2.38;2.17;;;9.70;99.90;;;;;;4860026;29;20204;-76
2021/10/07 02:04:36;;;;;;;2.05;1.50;;;9.70;99.90;;;;;;4860709;29;20604;-75
2021/10/07 02:07:03;;;;;;;2.25;2.08;;;9.70;99.90;;;;;;4860545;29;20208;-76
2021/10/07 02:09:30;;;;;;;2.50;1.70;;;9.70;99.90;;;;;;4860604;29;20231;-76
2021/10/07 02:11:58;;;;;;;1.67;1.58;;;9.70;99.90;;;;;;4861067;29;20230;-75
2021/10/07 02:14:25;;;;;;;1.98;1.60;;;9.70;99.90;;;;;;4860469;29;20235;-75
2021/10/07 02:16:52;;;;;;;2.13;1.60;;;9.70;99.90;;;;;;4860217;29;20707;-75
2021/10/07 02:19:19;;;;;;;2.47;1.50;;;9.70;99.90;;;;;;4860828;29;20215;-76
2021/10/07 02:21:46;;;;;;;3.03;1.50;;;9.70;99.90;;;;;;4860568;29;20233;-76
2021/10/07 02:24:13;;;;;;;1.40;1.30;;;9.70;99.90;;;;;;4860746;29;20228;-76
2021/10/07 02:26:39;;;;;;;1.70;1.55;;;9.70;99.90;;;;;;4859769;29;20218;-76
2021/10/07 02:29:08;;;;;;;1.65;1.50;;;9.70;99.90;;;;;;4860722;29;20231;-75
2021/10/07 02:31:35;;;;;;;1.60;1.50;;;9.60;99.90;;;;;;4860296;29;20219;-76
2021/10/07 02:34:01;;;;;;;1.90;1.58;;;9.70;99.90;;;;;;4860502;29;20235;-76
2021/10/07 02:36:28;;;;;;;1.95;1.48;;;9.70;99.90;;;;;;4859984;29;20622;-76
2021/10/07 02:38:55;;;;;;;2.33;1.50;;;9.70;99.90;;;;;;4860052;29;20255;-75
2021/10/07 02:41:21;;;;;;;1.48;1.38;;;9.70;99.90;;;;;;4860402;29;20204;-76
2021/10/07 02:43:48;;;;;;;2.10;1.60;;;9.70;99.90;;;;;;4859964;29;20211;-76
2021/10/07 02:46:16;;;;;;;2.35;1.60;;;9.70;99.90;;;;;;4859862;29;20726;-76
2021/10/07 02:48:44;;;;;;;2.00;1.63;;;9.70;99.90;;;;;;4860045;29;20463;-76
2021/10/07 02:51:11;;;;;;;2.67;1.60;;;9.70;99.90;;;;;;4860291;29;20238;-76
2021/10/07 02:53:38;;;;;;;2.10;1.58;;;9.70;99.90;;;;;;4859968;29;20215;-76
2021/10/07 02:56:06;;;;;;;2.95;1.60;;;9.70;99.90;;;;;;4859500;29;20227;-76
2021/10/07 02:58:33;;;;;;;1.98;1.77;;;9.70;99.90;;;;;;4859750;29;20259;-76
2021/10/07 03:00:59;;;;;;;2.40;1.40;;;9.70;99.90;;;;;;4859840;29;20702;-76
2021/10/07 03:03:27;;;;;;;1.65;1.50;;;9.70;99.90;;;;;;4860158;29;20214;-76
2021/10/07 03:05:54;;;;;;;2.30;1.63;;;9.70;99.90;;;;;;4859058;29;20402;-76
2021/10/07 03:08:23;;;;;;;3.17;1.92;;;9.70;99.90;;;;;;4859872;29;20203;-75
2021/10/07 03:10:50;;;;;;;1.55;1.45;;;9.60;99.90;;;;;;4859791;29;20593;-76
2021/10/07 03:13:17;;;;;;;2.50;1.95;;;9.70;99.90;;;;;;4859424;29;20223;-76
2021/10/07 03:15:44;;;;;;;2.83;1.83;;;9.70;99.90;;;;;;4859305;29;20243;-75
2021/10/07 03:18:10;;;;;;;2.13;1.92;;;9.60;99.90;;;;;;4859406;29;20232;-76
2021/10/07 03:20:39;;;;;;;1.73;1.63;;;9.60;99.90;;;;;;4859821;29;20212;-76
2021/10/07 03:23:05;;;;;;;1.70;1.60;;;9.60;99.90;;;;;;4859612;29;20211;-76
2021/10/07 03:25:32;;;;;;;1.70;1.58;;;9.60;99.90;;;;;;4859350;29;20232;-75
2021/10/07 03:27:59;;;;;;;2.25;2.05;;;9.60;99.90;;;;;;4859161;29;20212;-75
2021/10/07 03:30:26;;;;;;;2.05;1.85;;;9.60;99.90;;;;;;4859401;29;20223;-75
2021/10/07 03:32:53;;;;;;;1.35;1.25;;;9.60;99.90;;;;;;4866459;29;20208;-74
2021/10/07 03:35:19;;;;;;;2.42;2.22;;;9.60;99.90;;;;;;4877353;29;20222;-76
2021/10/07 03:37:48;;;;;;;3.20;1.90;;;9.70;99.90;;;;;;4874498;29;20601;-76
2021/10/07 03:40:14;;;;;;;2.40;1.92;;;9.70;99.90;;;;;;4873470;29;20283;-76
2021/10/07 03:42:41;;;;;;;2.28;2.08;;;9.60;99.90;;;;;;4868704;29;20200;-77
2021/10/07 03:45:09;;;;;;;1.50;1.40;;;9.60;99.90;;;;;;4869629;29;20223;-75
2021/10/07 03:47:36;;;;;;;1.75;1.60;;;9.60;99.90;;;;;;4867697;29;20587;-76
2021/10/07 03:50:03;;;;;;;1.95;1.80;;;9.50;99.90;;;;;;4866941;29;20210;-75
2021/10/07 03:52:30;;;;;;;3.17;2.20;;;9.50;99.90;;;;;;4868873;29;20196;-76
2021/10/07 03:54:58;;;;;;;1.58;1.48;;;9.50;99.90;;;;;;4868122;29;20738;-76
2021/10/07 03:57:26;;;;;;;2.13;1.80;;;9.50;99.90;;;;;;4866784;29;20228;-75
2021/10/07 03:59:53;;;;;;;1.90;1.70;;;9.50;99.90;;;;;;4868817;29;20214;-76
2021/10/07 04:02:20;;;;;;;3.40;1.90;;;9.50;99.90;;;;;;4857464;29;20471;-76
2021/10/07 04:04:47;;;;;;;1.95;1.85;;;9.50;99.90;;;;;;4857716;29;20788;-75
2021/10/07 04:07:14;;;;;;;2.05;1.85;;;9.60;99.90;;;;;;4856827;29;20208;-76
2021/10/07 04:09:41;;;;;;;1.83;1.73;;;9.50;99.90;;;;;;4858601;29;20208;-76
2021/10/07 04:12:09;;;;;;;2.08;1.88;;;9.60;99.90;;;;;;4858720;29;20679;-75
2021/10/07 04:14:36;;;;;;;2.15;1.83;;;9.50;99.90;;;;;;4865112;29;20230;-74
2021/10/07 04:17:03;;;;;;;2.40;1.70;;;9.60;99.90;;;;;;4867272;29;20241;-76
2021/10/07 04:19:30;;;;;;;1.67;1.55;;;9.60;99.90;;;;;;4866599;29;20314;-76
2021/10/07 04:21:57;;;;;;;1.73;1.50;;;9.60;99.90;;;;;;4865730;29;20218;-75
2021/10/07 04:24:23;;;;;;;3.38;1.50;;;9.60;99.90;;;;;;4866670;29;20230;-76
2021/10/07 04:26:50;;;;;;;4.30;1.90;;;9.60;99.90;;;;;;4866304;29;20209;-74
2021/10/07 04:29:18;;;;;;;2.17;1.77;;;9.60;99.90;;;;;;4868905;29;20199;-74
2021/10/07 04:31:45;;;;;;;2.20;2.00;;;9.50;99.90;;;;;;4859835;29;20211;-74
2021/10/07 04:34:12;;;;;;;1.90;1.80;;;9.50;99.90;;;;;;4858426;29;20219;-74
2021/10/07 04:36:40;;;;;;;1.60;1.50;;;9.50;99.90;;;;;;4857885;29;20263;-74
2021/10/07 04:39:07;;;;;;;3.53;1.70;;;9.50;99.90;;;;;;4935469;23;20234;-68
2021/10/07 04:41:34;;;;;;;3.25;1.80;;;9.50;99.90;;;;;;4876370;29;20210;-69
2021/10/07 04:44:00;;;;;;;2.15;1.95;;;9.50;99.90;;;;;;4879302;29;20230;-68
2021/10/07 04:46:28;;;;;;;2.03;1.80;;;9.50;99.90;;;;;;4895014;29;20667;-68
2021/10/07 04:48:55;;;;;;;1.90;1.80;;;9.50;99.90;;;;;;4895222;29;20217;-69
2021/10/07 04:51:23;;;;;;;4.35;2.38;;;9.60;99.90;;;;;;4895301;29;20211;-70
2021/10/07 04:53:49;;;;;;;2.00;1.80;;;9.50;99.90;;;;;;4895393;29;20207;-69
2021/10/07 04:56:16;;;;;;;5.45;2.10;;;9.60;99.90;;;;;;4894549;29;20210;-69
2021/10/07 04:58:43;;;;;;;2.00;1.80;;;9.50;99.90;;;;;;4895368;29;20226;-69
2021/10/07 05:01:10;;;;;;;1.85;1.70;;;9.50;99.90;;;;;;4895392;29;20202;-70
2021/10/07 05:03:38;;;;;;;2.45;1.92;;;9.50;99.90;;;;;;4895977;29;20639;-69
2021/10/07 05:06:04;;;;;;;1.95;1.83;;;9.50;99.90;;;;;;4895039;29;20202;-70
2021/10/07 05:08:31;;;;;;;2.95;1.95;;;9.50;99.90;;;;;;4896356;29;20203;-69
2021/10/07 05:10:58;;;;;;;1.40;1.30;;;9.50;99.90;;;;;;4893348;29;20207;-69
2021/10/07 05:13:25;;;;;;;1.70;1.60;;;9.50;99.90;;;;;;4890272;29;20207;-69
2021/10/07 05:15:51;;;;;;;1.83;1.70;;;9.50;99.90;;;;;;4889498;29;20613;-69
2021/10/07 05:18:18;;;;;;;1.90;1.80;;;9.50;99.90;;;;;;4884681;29;20219;-69
2021/10/07 05:20:48;;;;;;;2.40;2.10;;;9.50;99.90;;;;;;4894640;29;20572;-70
2021/10/07 05:23:15;;;;;;;2.08;1.88;;;9.60;99.90;;;;;;4893678;29;20556;-69
2021/10/07 05:25:42;;;;;;;4.35;1.77;;;9.50;99.90;;;;;;4897142;29;20245;-70
2021/10/07 05:28:09;;;;;;;1.95;1.75;;;9.60;99.90;;;;;;4898731;29;20202;-70
2021/10/07 05:30:35;;;;;;;3.20;1.90;;;9.60;99.90;;;;;;4896892;29;20690;-70
2021/10/07 05:33:02;;;;;;;2.05;1.85;;;9.60;99.90;;;;;;4896203;29;20207;-70
2021/10/07 05:35:29;;;;;;;2.20;2.00;;;9.50;99.90;;;;;;4897478;29;20215;-69
2021/10/07 05:37:57;;;;;;;2.88;2.00;;;9.50;99.90;;;;;;4879577;29;20230;-70
2021/10/07 05:40:24;;;;;;;2.30;2.10;;;9.50;99.90;;;;;;4885334;29;20666;-69
2021/10/07 05:42:51;;;;;;;2.50;2.30;;;9.50;99.90;;;;;;4899806;29;20211;-70
2021/10/07 05:45:18;;;;;;;1.92;1.83;;;9.50;99.90;;;;;;4898131;29;20219;-69
2021/10/07 05:47:44;;;;;;;2.20;2.00;;;9.50;99.90;;;;;;4897763;29;20195;-69
2021/10/07 05:50:12;;;;;;;3.92;1.95;;;9.50;99.90;;;;;;4898534;29;20221;-69
2021/10/07 05:52:39;;;;;;;2.88;2.20;;;9.50;99.90;;;;;;4898196;29;20231;-70
2021/10/07 05:55:08;;;;;;;2.10;1.90;;;9.50;99.90;;;;;;4879933;29;20231;-70
2021/10/07 05:57:36;;;;;;;3.08;2.30;;;9.60;99.90;;;;;;4888855;29;20213;-70
2021/10/07 06:00:05;;;;;;;3.05;1.75;;;9.60;99.90;;;;;;4911574;29;20206;-69
2021/10/07 06:02:32;;;;;;;2.22;2.10;;;9.60;99.90;;;;;;4897435;29;20206;-69
2021/10/07 06:04:58;;;;;;;2.60;2.00;;;9.60;99.90;;;;;;4897087;29;20249;-70
2021/10/07 06:07:25;;;;;;;1.98;1.88;;;9.60;99.90;;;;;;4897459;29;20213;-70
2021/10/07 06:09:52;;;;;;;1.85;1.75;;;9.60;99.90;;;;;;4896726;29;20682;-69
2021/10/07 06:12:20;;;;;;;2.83;1.80;;;9.70;99.90;;;;;;4897432;29;20275;-69
2021/10/07 06:14:47;;;;;;;6.38;2.20;;;9.70;99.90;;;;;;4897082;29;20598;-69
2021/10/07 06:17:14;;;;;;;4.43;2.10;;;9.70;99.90;;;;;;4896199;29;20213;-69
2021/10/07 06:19:44;;;;;;;2.88;2.20;;;9.70;99.90;;;;;;4897070;29;20577;-69
2021/10/07 06:22:10;;;;;;;3.00;2.70;;;9.70;99.90;;;;;;4894148;29;20214;-69
2021/10/07 06:24:37;;;;;;;2.92;2.33;;;9.80;99.90;;;;;;4896906;29;20722;-69
2021/10/07 06:27:04;;;;;;;3.75;2.10;;;9.80;99.90;;;;;;4895935;29;20202;-70
2021/10/07 06:29:32;;;;;;;3.67;2.30;;;9.80;99.90;;;;;;4895944;29;20709;-70
2021/10/07 06:31:59;;;;;;;3.80;2.55;;;9.80;99.90;;;;;;4897324;29;20211;-69
2021/10/07 06:34:26;;;;;;;3.47;1.95;;;9.80;99.90;;;;;;4898304;29;20558;-69
2021/10/07 06:36:53;;;;;;;2.03;1.90;;;9.90;99.90;;;;;;4896520;29;20202;-69
2021/10/07 06:39:22;;;;;;;3.35;2.28;;;9.80;99.90;;;;;;4894109;29;20226;-70
2021/10/07 06:41:52;;;;;;;3.15;2.30;;;9.90;99.90;;;;;;4895793;29;20206;-70
2021/10/07 06:44:19;;;;;;;3.65;2.50;;;9.90;99.90;;;;;;4897061;29;20710;-70
2021/10/07 06:46:47;;;;;;;2.53;2.10;;;9.90;99.90;;;;;;4895740;29;20206;-69
2021/10/07 06:49:14;;;;;;;3.10;2.22;;;10.00;99.90;;;;;;4896889;29;20206;-69
2021/10/07 06:51:41;;;;;;;3.00;2.50;;;10.00;99.90;;;;;;4896793;29;20238;-69
2021/10/07 06:54:08;;;;;;;3.55;2.65;;;10.00;99.90;;;;;;4896874;29;20809;-69
2021/10/07 06:56:36;;;;;;;3.40;2.55;;;10.10;99.90;;;;;;4896439;29;20206;-69
2021/10/07 06:59:04;;;;;;;2.78;2.30;;;10.10;99.90;;;;;;4896394;29;20282;-70
2021/10/07 07:01:34;;;;;;;2.75;2.55;;;10.10;99.90;;;;;;4896605;29;20210;-69
2021/10/07 07:04:02;;;;;;;4.00;2.63;;;10.10;99.90;;;;;;4896707;29;20651;-70
2021/10/07 07:06:30;;;;;;;3.30;3.00;;;10.20;99.90;;;;;;4895847;29;20238;-70
2021/10/07 07:08:57;;;;;;;5.90;3.13;;;10.20;99.90;;;;;;4896432;29;20547;-69
2021/10/07 07:11:27;;;;;;;5.55;3.65;;;10.20;99.90;;;;;;4895979;29;20289;-69
2021/10/07 07:13:55;;;;;;;3.90;3.50;;;10.30;99.90;;;;;;4896431;29;20208;-69
2021/10/07 07:16:21;;;;;;;6.13;3.90;;;10.30;99.90;;;;;;4895468;29;20206;-69
2021/10/07 07:18:48;;;;;;;4.35;3.83;;;10.30;99.90;;;;;;4896113;29;20227;-69
2021/10/07 07:21:19;;;;;;;4.38;3.97;;;10.30;99.90;;;;;;4896437;29;20209;-69
2021/10/07 07:23:46;;;;;;;5.35;4.38;;;10.30;99.90;;;;;;4896235;29;20630;-69
2021/10/07 07:26:13;;;;;;;5.50;3.80;;;10.40;99.90;;;;;;4898195;29;20258;-69
2021/10/07 07:28:40;;;;;;;6.65;3.95;;;10.40;99.90;;;;;;4899126;29;20333;-69
2021/10/07 07:31:07;;;;;;;7.20;3.70;;;10.50;99.90;;;;;;4898141;29;20249;-69
2021/10/07 07:33:34;;;;;;;3.78;3.10;;;10.50;99.90;;;;;;4898370;29;20202;-69
2021/10/07 07:36:01;;;;;;;4.35;3.88;;;10.50;99.90;;;;;;4897509;29;20587;-69
2021/10/07 07:38:30;;;;;;;6.97;4.28;;;10.50;99.90;;;;;;4896839;29;20234;-69
2021/10/07 07:40:57;;;;;;;4.70;4.30;;;10.60;99.90;;;;;;4896839;29;20238;-69
2021/10/07 07:43:24;;;;;;;9.65;5.13;;;10.60;99.90;;;;;;4896239;29;20231;-69
2021/10/07 07:45:52;;;;;;;4.93;4.47;;;10.60;99.90;;;;;;4896495;29;20259;-69
2021/10/07 07:48:20;;;;;;;6.38;5.22;;;10.70;99.90;;;;;;4896493;29;20217;-69
2021/10/07 07:50:48;;;;;;;5.10;4.70;;;10.70;99.90;;;;;;4895532;29;20266;-69
2021/10/07 07:53:15;;;;;;;5.90;4.60;;;10.70;99.90;;;;;;4896292;29;20214;-69
2021/10/07 07:55:43;;;;;;;6.72;4.90;;;10.70;99.90;;;;;;4894996;29;20257;-69
2021/10/07 07:58:11;;;;;;;8.65;4.60;;;10.80;99.90;;;;;;4895164;29;20202;-69
2021/10/07 08:00:39;;;;;;;6.43;4.82;;;10.80;99.90;;;;;;4895473;29;20285;-69
2021/10/07 08:03:06;;;;;;;6.00;5.07;;;10.90;99.90;;;;;;4895774;29;20262;-69
2021/10/07 08:05:34;;;;;;;5.95;5.35;;;10.90;99.90;;;;;;4895867;29;20650;-69
2021/10/07 08:08:01;;;;;;;5.72;5.05;;;11.00;99.90;;;;;;4895121;29;20209;-68
2021/10/07 08:10:29;;;;;;;5.93;4.90;;;11.00;99.90;;;;;;4895624;29;20258;-69
2021/10/07 08:13:01;;;;;;;6.97;5.45;;;11.00;99.90;;;;;;4895988;29;20317;-69
2021/10/07 08:15:28;;;;;;;6.18;5.45;;;11.10;99.90;;;;;;4895868;29;20261;-70
2021/10/07 08:17:57;;;;;;;7.78;5.20;;;11.10;99.90;;;;;;4895286;29;20678;-69
2021/10/07 08:20:24;;;;;;;6.93;5.38;;;11.10;99.90;;;;;;4895429;29;20290;-69
2021/10/07 08:22:51;;;;;;;5.90;5.40;;;11.20;99.90;;;;;;4895287;29;20697;-69
2021/10/07 08:25:20;;;;;;;5.50;5.00;;;11.20;99.90;;;;;;4894991;29;20318;-69
2021/10/07 08:27:48;;;;;;;7.15;5.47;;;11.20;99.90;;;;;;4894979;29;20262;-69
2021/10/07 08:30:18;;;;;;;5.93;4.78;;;11.30;99.90;;;;;;4894792;29;20206;-69
2021/10/07 08:32:45;;;;;;;6.60;5.05;;;11.30;99.90;;;;;;4895229;29;20214;-68
2021/10/07 08:35:12;;;;;;;5.97;5.32;;;11.30;99.90;;;;;;4895159;29;20293;-69
2021/10/07 08:37:39;;;;;;;6.43;5.10;;;11.30;99.90;;;;;;4894790;29;20879;-68
2021/10/07 08:40:09;;;;;;;5.35;4.85;;;11.30;99.90;;;;;;4895107;29;20610;-69
2021/10/07 08:42:37;;;;;;;9.00;6.50;;;11.30;99.90;;;;;;4895095;29;20215;-69
2021/10/07 08:45:04;;;;;;;7.55;5.35;;;11.40;99.90;;;;;;4895284;29;20230;-69
2021/10/07 08:47:32;;;;;;;6.35;5.72;;;11.40;99.90;;;;;;4894281;29;20694;-69
2021/10/07 08:49:59;;;;;;;7.53;5.50;;;11.40;99.90;;;;;;4891878;29;20198;-69
2021/10/07 08:52:26;;;;;;;6.00;5.45;;;11.40;99.90;;;;;;4892578;29;20226;-69
2021/10/07 08:54:53;;;;;;;6.47;5.53;;;11.50;99.90;;;;;;4894814;29;20709;-69
2021/10/07 08:57:20;;;;;;;5.85;5.35;;;11.50;99.90;;;;;;4894239;29;20618;-69
2021/10/07 08:59:47;;;;;;;5.57;4.72;;;11.60;99.90;;;;;;4894473;29;20325;-68
2021/10/07 09:02:24;;;;;;;7.18;4.97;;;11.70;99.90;;;;;;4895184;29;20207;-69
2021/10/07 09:04:53;;;;;;;6.70;5.80;;;11.80;99.90;;;;;;4892993;29;20596;-69
2021/10/07 09:07:20;;;;;;;6.68;5.15;;;11.90;99.90;;;;;;4894440;29;20233;-69
2021/10/07 09:09:47;;;;;;;5.35;4.85;;;11.90;99.90;;;;;;4876803;29;20214;-69
2021/10/07 09:12:15;;;;;;;7.78;5.10;;;12.00;99.90;;;;;;4881550;29;20207;-69
2021/10/07 09:14:44;;;;;;;6.35;5.43;;;12.10;99.90;;;;;;4898203;29;20227;-69
2021/10/07 09:17:13;;;;;;;5.60;4.57;;;12.20;99.90;;;;;;4898228;29;20207;-69
2021/10/07 09:19:42;;;;;;;5.25;4.75;;;12.30;99.90;;;;;;4898651;29;20226;-69
2021/10/07 09:22:19;;;;;;;6.07;5.05;;;12.30;99.90;;;;;;4898690;29;20210;-69
2021/10/07 09:24:48;;;;;;;5.78;4.63;;;12.40;99.90;;;;;;4902103;29;20241;-69
2021/10/07 09:27:18;;;;;;;5.30;4.80;;;12.30;99.90;;;;;;4901520;29;20214;-69
2021/10/07 09:29:49;;;;;;;9.05;4.63;;;12.30;99.90;;;;;;4901193;29;20699;-70
2021/10/07 09:32:25;;;;;;;5.15;4.65;;;12.30;99.90;;;;;;4900685;29;20244;-69
2021/10/07 09:34:52;;;;;;;4.78;4.35;;;12.40;99.90;;;;;;4900236;29;20248;-69
2021/10/07 09:37:27;;;;;;;10.35;5.15;;;12.40;99.90;;;;;;4899631;29;20206;-69
2021/10/07 09:39:56;;;;;;;7.68;5.35;;;12.40;99.90;;;;;;4899672;29;20226;-68
2021/10/07 09:42:27;;;;;;;6.97;4.63;;;12.40;99.90;;;;;;4894441;29;20341;-69
2021/10/07 09:45:08;;;;;;;5.45;4.93;;;12.40;99.90;;;;;;4899248;29;20234;-69
2021/10/07 09:47:36;;;;;;;6.45;4.20;;;12.50;99.90;;;;;;4897108;29;20210;-68
2021/10/07 09:50:17;;;;;;;7.00;4.32;;;12.50;99.90;;;;;;4898777;29;20705;-69
2021/10/07 09:52:48;;;;;;;5.28;4.22;;;12.50;99.90;;;;;;4899401;29;20233;-69
2021/10/07 09:55:16;;;;;;;5.15;3.72;;;12.50;99.90;;;;;;4899078;29;20226;-69
2021/10/07 09:57:56;;;;;;;5.10;4.63;;;12.50;99.90;;;;;;4898072;29;20221;-69
2021/10/07 10:00:27;;;;;;;4.45;4.05;;;12.50;99.90;;;;;;4898661;29;20237;-69
2021/10/07 10:02:55;;;;;;;6.55;4.65;;;12.50;99.90;;;;;;4898931;29;20234;-69
2021/10/07 10:05:22;;;;;;;4.55;4.15;;;12.50;99.90;;;;;;4898719;29;20643;-69
2021/10/07 10:07:50;;;;;;;8.45;4.65;;;12.40;99.90;;;;;;4898075;29;20207;-69
2021/10/07 10:10:17;;;;;;;4.88;3.80;;;12.40;99.90;;;;;;4898644;29;20206;-68
2021/10/07 10:12:45;;;;;;;5.53;4.80;;;12.30;99.90;;;;;;4898639;29;20561;-69
2021/10/07 10:15:13;;;;;;;8.30;4.65;;;12.30;99.90;;;;;;4898017;29;20232;-69
2021/10/07 10:17:40;;;;;;;9.27;5.28;;;12.30;99.90;;;;;;4897787;29;20206;-69
2021/10/07 10:20:11;;;;;;;5.53;4.93;;;12.30;99.90;;;;;;4898431;29;20223;-69
2021/10/07 10:22:40;;;;;;;5.30;4.80;;;12.20;99.90;;;;;;4897501;29;20682;-69
2021/10/07 10:25:09;;;;;;;5.25;4.75;;;12.30;99.90;;;;;;4898111;29;20223;-68
2021/10/07 10:27:55;;;;;;;5.60;5.05;;;12.30;99.90;;;;;;4898171;29;20206;-69
2021/10/07 10:30:31;;;;;;;4.68;4.20;;;12.40;99.90;;;;;;4898031;29;20678;-69
2021/10/07 10:33:00;;;;;;;5.75;5.10;;;12.50;99.90;;;;;;4897987;29;20206;-69
2021/10/07 10:35:35;;;;;;;5.25;4.75;;;12.60;99.90;;;;;;4897384;29;20636;-69
2021/10/07 10:38:03;;;;;;;6.30;5.53;;;12.80;99.90;;;;;;4893641;29;20214;-70
2021/10/07 10:40:32;;;;;;;5.30;4.80;;;12.90;99.90;;;;;;4896773;29;20329;-69
2021/10/07 10:43:32;;;;;;;10.30;5.65;;;12.90;99.90;;;;;;4897076;29;20470;-69
2021/10/07 10:46:15;;;;;;;5.57;5.07;;;13.00;99.90;;;;;;4896633;29;20222;-69
2021/10/07 10:49:09;;;;;;;6.13;5.30;;;12.90;99.90;;;;;;4896590;29;20210;-69
2021/10/07 10:51:37;;;;;;;5.97;5.47;;;12.90;99.90;;;;;;4863518;29;20462;-69
2021/10/07 10:54:12;;;;;;;6.18;5.00;;;12.90;99.90;;;;;;4896660;29;20491;-69
2021/10/07 10:56:58;;;;;;;8.68;6.20;;;12.80;99.90;;;;;;4896415;29;20216;-69
2021/10/07 10:59:28;;;;;;;5.37;4.87;;;12.70;99.90;;;;;;4896818;29;20210;-69
2021/10/07 11:02:26;;;;;;;6.65;6.05;;;12.70;99.90;;;;;;4897096;29;20466;-69
2021/10/07 11:04:55;;;;;;;7.83;5.30;;;12.70;99.90;;;;;;4897021;29;20663;-69
2021/10/07 11:07:27;;;;;;;5.78;5.28;;;12.70;99.90;;;;;;4896121;29;20482;-68
2021/10/07 11:10:09;;;;;;;7.32;5.28;;;12.60;99.90;;;;;;4896744;29;20207;-69
2021/10/07 11:12:52;;;;;;;5.47;4.97;;;12.70;99.90;;;;;;4896082;29;20297;-69
2021/10/07 11:15:21;;;;;;;6.22;5.63;;;12.70;99.90;;;;;;4896500;29;20230;-69
2021/10/07 11:17:49;;;;;;;6.55;5.50;;;12.70;99.90;;;;;;4895760;29;20309;-69
2021/10/07 11:20:18;;;;;;;11.13;7.03;;;12.70;99.90;;;;;;4898930;29;20222;-69
2021/10/07 11:22:59;;;;;;;8.75;6.50;;;12.70;99.90;;;;;;4899902;29;20471;-69
2021/10/07 11:25:27;;;;;;;11.25;6.10;;;12.70;99.90;;;;;;4898327;29;20257;-69
2021/10/07 11:27:56;;;;;;;7.40;6.70;;;12.70;99.90;;;;;;4898185;29;20210;-69
2021/10/07 11:30:24;;;;;;;8.80;6.03;;;12.70;99.90;;;;;;4898109;29;20253;-69
2021/10/07 11:32:51;;;;;;;6.28;5.75;;;12.70;99.90;;;;;;4895992;29;20467;-69
2021/10/07 11:35:22;;;;;;;7.07;6.32;;;12.80;99.90;;;;;;4963751;23;20231;-74
2021/10/07 11:38:13;;;;;;;7.80;6.53;;;12.80;99.90;;;;;;4868915;29;20199;-72
2021/10/07 11:40:44;;;;;;;7.10;6.40;;;12.80;99.90;;;;;;4876533;29;20238;-72
2021/10/07 11:43:15;;;;;;;6.53;5.93;;;12.90;99.90;;;;;;4876797;29;20219;-71
2021/10/07 11:45:44;;;;;;;8.00;7.15;;;12.90;99.90;;;;;;4876621;29;21063;-72
2021/10/07 11:48:11;;;;;;;8.35;6.50;;;12.90;99.90;;;;;;4876834;29;20219;-71
2021/10/07 11:50:42;;;;;;;7.82;6.90;;;12.80;99.90;;;;;;4876836;29;20578;-73
2021/10/07 11:53:11;;;;;;;7.23;6.37;;;12.80;99.90;;;;;;4877176;29;20897;-72
2021/10/07 11:55:41;;;;;;;7.40;6.13;;;12.70;99.90;;;;;;4876600;29;20865;-70
2021/10/07 11:58:09;;;;;;;6.85;5.90;;;12.70;99.90;;;;;;4876345;29;20478;-69
2021/10/07 12:00:43;;;;;;;6.55;5.85;;;12.70;99.90;;;;;;4876385;29;20219;-69
2021/10/07 12:03:22;;;;;;;8.95;5.88;;;12.70;99.90;;;;;;4877057;29;20615;-69
2021/10/07 12:05:53;;;;;;;9.05;5.10;;;12.70;99.90;;;;;;4876325;29;20235;-71
2021/10/07 12:08:22;;;;;;;8.50;6.30;;;12.60;99.90;;;;;;4876947;29;20932;-71
2021/10/07 12:10:50;;;;;;;6.40;5.40;;;12.70;99.90;;;;;;4876053;29;20948;-70
2021/10/07 12:13:19;;;;;;;7.97;6.20;;;12.70;99.90;;;;;;4876621;29;20211;-71
2021/10/07 12:15:51;;;;;;;7.17;6.03;;;12.80;99.90;;;;;;4875586;29;20230;-71
2021/10/07 12:18:20;;;;;;;6.30;5.75;;;12.90;99.90;;;;;;4876688;29;20546;-70
2021/10/07 12:21:13;;;;;;;5.55;4.97;;;12.90;99.90;;;;;;4876091;29;20223;-71
2021/10/07 12:23:57;;;;;;;7.35;5.13;;;13.10;99.90;;;;;;4858743;29;20231;-69
2021/10/07 12:26:33;;;;;;;5.40;4.65;;;13.20;99.90;;;;;;4875916;29;20211;-71
2021/10/07 12:29:06;;;;;;;5.53;4.38;;;13.30;99.90;;;;;;4876203;29;20274;-70
2021/10/07 12:31:34;;;;;;;5.83;4.53;;;13.40;99.90;;;;;;4876287;29;20586;-71
2021/10/07 12:34:04;;;;;;;4.90;4.50;;;13.40;99.90;;;;;;4875949;29;20487;-71
2021/10/07 12:36:37;;;;;;;4.90;4.47;;;13.40;99.90;;;;;;4875521;29;20483;-71
2021/10/07 12:39:05;;;;;;;5.80;4.40;;;13.50;99.90;;;;;;4875925;29;20475;-71
2021/10/07 12:41:33;;;;;;;4.30;3.90;;;13.50;99.90;;;;;;4875811;29;20498;-70
2021/10/07 12:44:01;;;;;;;4.80;4.30;;;13.50;99.90;;;;;;4875915;29;20852;-70
2021/10/07 12:46:28;;;;;;;7.40;6.67;;;13.50;99.90;;;;;;4874948;29;20490;-71
2021/10/07 12:48:58;;;;;;;5.60;5.00;;;13.50;99.90;;;;;;4876097;29;20840;-70
2021/10/07 12:51:27;;;;;;;9.70;5.67;;;13.60;99.90;;;;;;4876105;29;20459;-71
2021/10/07 12:53:54;;;;;;;7.47;5.70;;;13.60;99.90;;;;;;4876018;29;20471;-70
2021/10/07 12:56:25;;;;;;;9.40;7.23;;;13.70;99.90;;;;;;4875421;29;20471;-71
2021/10/07 12:58:57;;;;;;;7.27;5.23;;;13.80;99.90;;;;;;4875869;29;21027;-70
2021/10/07 13:01:26;;;;;;;5.90;4.63;;;13.90;99.90;;;;;;4870363;29;20495;-69
2021/10/07 13:04:18;;;;;;;6.40;4.67;;;13.90;99.90;;;;;;4876040;29;20482;-71
2021/10/07 13:06:47;;;;;;;8.23;5.93;;;14.00;99.90;;;;;;4875726;29;20463;-70